Tiempo atmosférico en la estación meteorológica de Algarrobo, Málaga (80 m.)



Fecha
DESCASC
Temp. máxima en grados centígrados (hora)
DESCASC
Temp. mínima en grados centígrados (hora)
DESCASC
Temp. media en grados centígrados
DESCASC
Racha de viento máxima en m/sg (hora)
DESCASC
Velocidad máxima media en intervalos de 10 minutos(hora)
DESCASC
Precipitaciones diarias en mm
DESCASC
Precipitaciones de 00:00 a 06:00 en mm
DESCASC
Precipitaciones de 06:00 a 12:00 en mm
DESCASC
Precipitaciones de 12:00 a 18:00 en mm
DESCASC
Precipitaciones de 18:00 a 24:00 en mm
DESCASC
29-10-2020 22.9 (14:30) 10.8 (07:20) 16.8 6.67 (16:30) 3.89 (16:00) 0 0 0 0 0
28-10-2020 21.2 (13:00) 10.9 (04:00) 16.1 5 (11:40) 3.33 (11:40) 0 0 0 0 0
27-10-2020 21 (13:20) 10.2 (00:00) 15.6 5.56 (14:50) 3.06 (14:50) 0 0 0 0 0
26-10-2020 21.7 (15:10) 12.4 (00:00) 17.1 18.61 (11:10) 11.67 (11:10) 0 0 0 0 0
25-10-2020 24.6 (16:20) 11.4 (00:00) 18 10.28 (16:40) 6.11 (16:30) 0 0 0 0 0
24-10-2020 22.2 (13:50) 12.3 (00:00) 17.3 5.83 (04:00) 3.33 (15:40) 0 0 0 0 0
23-10-2020 22 (12:40) 13.7 (00:00) 17.8 8.33 (16:20) 4.72 (16:40) 0 0 0 0 0
22-10-2020 19.2 (02:10) 15.8 (00:00) 17.5 6.11 (06:40) 3.33 (06:50) 19.2 0 7.8 10.2 1.2
21-10-2020 24.1 (14:40) 16 (00:00) 20.1 10.83 (09:00) 5 (10:20) 2.6 2.6 0 0 0
20-10-2020 23 (15:50) 15 (00:00) 19 8.06 (15:20) 5 (15:30) 0 0 0 0 0
19-10-2020 23.6 (14:40) 12.9 (00:00) 18.3 6.67 (13:10) 4.17 (14:50) 0 0 0 0 0
18-10-2020 21.9 (16:50) 11.3 (00:00) 16.6 7.78 (14:30) 4.44 (14:40) 0 0 0 0 0
17-10-2020 21.5 (13:40) 10.8 (00:00) 16.2 4.72 (13:30) 3.33 (13:40) 0 0 0 0 0
16-10-2020 22 (13:40) 11.8 (00:00) 16.9 6.39 (14:50) 3.89 (15:10) 0 0 0 0 0
15-10-2020 22.1 (14:10) 12.9 (00:00) 17.5 6.39 (16:50) 3.89 (00:10) 0 0 0 0 0
14-10-2020 26.7 (16:20) 12.5 (00:00) 19.6 12.78 (13:40) 8.61 (18:20) 0 0 0 0 0
13-10-2020 22 (13:40) 13.4 (00:00) 17.7 4.72 (17:20) 2.78 (14:10) 0 0 0 0 0
12-10-2020 22.8 (13:00) 14.5 (00:00) 18.6 6.39 (13:10) 3.89 (15:00) 0 0 0 0 0
11-10-2020 24.6 (15:30) 15.5 (00:00) 20.1 4.72 (17:10) 3.33 (16:50) 0 0 0 0 0
10-10-2020 23.3 (12:40) 14.9 (00:00) 19.1 5.28 (12:50) 3.89 (12:20) 0 0 0 0 0
09-10-2020 24.2 (13:10) 15.2 (00:00) 19.7 5.56 (16:00) 3.89 (15:50) 0 0 0 0 0
08-10-2020 26 (14:40) 15.6 (00:00) 20.8 5 (16:40) 3.33 (16:50) 0 0 0 0 0
07-10-2020 25.2 (16:00) 13.9 (00:00) 19.6 4.44 (14:10) 3.06 (14:10) 0 0 0 0 0
06-10-2020 23.4 (13:10) 13.2 (00:00) 18.3 5.28 (13:50) 3.89 (13:50) 0 0 0 0 0
05-10-2020 26.2 (15:30) 15.1 (00:00) 20.7 8.89 (04:40) 5.56 (04:50) 0 0 0 0 0
04-10-2020 25 (18:50) 11.8 (00:00) 18.4 14.44 (17:10) 8.61 (16:00) 0 0 0 0 0
03-10-2020 24 (16:30) 13.6 (00:00) 18.8 19.17 (04:50) 14.17 (05:10) 0 0 0 0 0
02-10-2020 24.2 (00:00) 17.9 (00:00) 21.1 21.11 (21:40) 13.33 (21:50) 0.4 0 0 0 0.4
01-10-2020 29.3 (19:20) 14.1 (00:00) 21.7 13.33 (14:40) 8.06 (23:50) 0 0 0 0 0

Gráficas

Temp. máximas Temp. mínimas Temp. medias Precipitaciones Rachas de viento máximas Velocidades máximas media en intervalos de 10 minutos

Datos horarios

Fecha y hora oficial Temperatura (ºC) Velocidad del viento (km/h) Dirección del viento Racha (km/h) Dirección de racha Precipitación (mm) Presión (hPa) Tendencia (hPa) Humedad (%)
2020-10-30 23:00:00 15.3 4 Norte 6 Norte 0 -- -- 80
2020-10-30 22:00:00 15.4 3 Norte 6 Norte 0 -- -- 79
2020-10-30 21:00:00 15.1 4 Norte 6 Norte 0 -- -- 79
2020-10-30 20:00:00 15.6 0 Calma 5 Norte 0 -- -- 76
2020-10-30 19:00:00 16.7 2 Nordeste 4 Nordeste 0 -- -- 75
2020-10-30 18:00:00 19.2 0 Calma 8 Sudoeste 0 -- -- 67
2020-10-30 17:00:00 21.3 8 Sur 13 Sur 0 -- -- 61
2020-10-30 16:00:00 22 8 Sur 14 Sur 0 -- -- 60
2020-10-30 15:00:00 22 11 Sudoeste 17 Sudoeste 0 -- -- 61
2020-10-30 14:00:00 21.8 9 Sudoeste 15 Sudoeste 0 -- -- 61
2020-10-30 13:00:00 21.5 8 Sudoeste 15 Sudoeste 0 -- -- 64
2020-10-30 12:00:00 21.5 9 Sur 14 Sur 0 -- -- 63
2020-10-30 11:00:00 20.9 7 Sudoeste 11 Sudoeste 0 -- -- 58
2020-10-30 10:00:00 19.8 4 Oeste 8 Noroeste 0 -- -- 61
2020-10-30 09:00:00 14.7 3 Norte 6 Norte 0 -- -- 81
2020-10-30 08:00:00 12.4 3 Norte 5 Norte 0 -- -- 85
2020-10-30 07:00:00 12.8 4 Norte 7 Norte 0 -- -- 83
2020-10-30 06:00:00 12.8 3 Norte 7 Norte 0 -- -- 82
2020-10-30 05:00:00 13.5 4 Norte 10 Norte 0 -- -- 78
2020-10-30 04:00:00 13.8 5 Norte 9 Norte 0 -- -- 80
2020-10-30 03:00:00 13.4 4 Norte 6 Norte 0 -- -- 84
2020-10-30 02:00:00 13.3 2 Norte 5 Sudeste 0 -- -- 81
2020-10-30 01:00:00 14.8 0 Calma 10 Norte 0 -- -- 73
2020-10-30 00:00:00 14.6 5 Norte 9 Norte 0 -- -- 76
2020-10-29 23:00:00 14 2 Norte 5 Nordeste 0 -- -- 77
2020-10-29 22:00:00 14.9 0 Calma 9 Norte 0 -- -- 73
2020-10-29 21:00:00 15.9 4 Nordeste 10 Nordeste 0 -- -- 69
2020-10-29 20:00:00 16.8 5 Norte 10 Norte 0 -- -- 66
2020-10-29 19:00:00 18.8 3 Este 17 Sudeste 0 -- -- 57
2020-10-29 18:00:00 20.9 10 Sudeste 21 Sudeste 0 -- -- 52
2020-10-29 17:00:00 22.7 10 Sudeste 24 Sudeste 0 -- -- 46
2020-10-29 16:00:00 22.7 14 Sur 22 Sudeste 0 -- -- 39
2020-10-29 15:00:00 22.9 11 Sur 19 Sudeste 0 -- -- 44
2020-10-29 14:00:00 22 9 Sur 18 Sudeste 0 -- -- 41
2020-10-29 13:00:00 21.3 10 Sur 18 Sudeste 0 -- -- 49
2020-10-29 12:00:00 21 11 Sur 18 Sur 0 -- -- 47
2020-10-29 11:00:00 20.8 7 Sudoeste 13 Sudoeste 0 -- -- 52
2020-10-29 10:00:00 18.5 3 Sudoeste 5 Sur 0 -- -- 58
2020-10-29 09:00:00 12.9 0 Calma 7 Norte 0 -- -- 81
2020-10-29 08:00:00 11.2 3 Norte 6 Norte 0 -- -- 83
2020-10-29 07:00:00 11 3 Norte 6 Norte 0 -- -- 83
2020-10-29 06:00:00 10.9 3 Nordeste 5 Este 0 -- -- 84
2020-10-29 05:00:00 11 0 Calma 5 Norte 0 -- -- 85
2020-10-29 04:00:00 11.3 4 Norte 6 Nordeste 0 -- -- 87
2020-10-29 03:00:00 11.2 0 Calma 5 Norte 0 -- -- 88
2020-10-29 02:00:00 11.6 3 Nordeste 5 Norte 0 -- -- 87
2020-10-29 01:00:00 12 2 Norte 3 Sudoeste 0 -- -- 84
2020-10-29 00:00:00 12.5 0 Calma 8 Norte 0 -- -- 82
2020-10-28 23:00:00 13.1 4 Norte 8 Norte 0 -- -- 80
2020-10-28 22:00:00 13.5 3 Norte 5 Norte 0 -- -- 82
2020-10-28 21:00:00 13.6 3 Norte 6 Norte 0 -- -- 83
2020-10-28 20:00:00 14.3 3 Norte 4 Norte 0 -- -- 79
2020-10-28 19:00:00 15.9 2 Nordeste 4 Nordeste 0 -- -- 73
2020-10-28 18:00:00 18.8 0 Calma 10 Sudoeste 0 -- -- 64
2020-10-28 17:00:00 20.2 5 Oeste 11 Sur 0 -- -- 58
2020-10-28 16:00:00 20.1 6 Sudoeste 14 Sur 0 -- -- 60
2020-10-28 15:00:00 20.9 7 Sudoeste 15 Sur 0 -- -- 56
2020-10-28 14:00:00 21 6 Sudoeste 14 Sur 0 -- -- 56
2020-10-28 13:00:00 21.2 10 Sur 16 Sur 0 -- -- 41
2020-10-28 12:00:00 19.7 9 Sur 18 Sudoeste 0 -- -- 54
2020-10-28 11:00:00 19 8 Sur 14 Sur 0 -- -- 53
2020-10-28 10:00:00 16.9 3 Sudoeste 5 Sudoeste 0 -- -- 55
2020-10-28 09:00:00 12.5 0 Calma 6 Nordeste 0 -- -- 67
2020-10-28 08:00:00 11.2 3 Nordeste 11 Nordeste 0 -- -- 66
2020-10-28 07:00:00 12.2 4 Norte 11 Norte 0 -- -- 60
2020-10-28 06:00:00 12.5 4 Norte 11 Nordeste 0 -- -- 58
2020-10-28 05:00:00 11.4 4 Norte 8 Norte 0 -- -- 65
2020-10-28 04:00:00 10.9 4 Norte 6 Norte 0 -- -- 76
2020-10-28 03:00:00 12.5 3 Nordeste 11 Norte 0 -- -- 64
2020-10-28 02:00:00 11.7 4 Norte 9 Nordeste 0 -- -- 72
2020-10-28 01:00:00 11.8 5 Nordeste 9 Norte 0 -- -- 74
2020-10-28 00:00:00 12.3 4 Norte 8 Norte 0 -- -- 73
2020-10-27 23:00:00 12.7 5 Nordeste 8 Norte 0 -- -- 71
2020-10-27 22:00:00 12.9 3 Nordeste 6 Norte 0 -- -- 71
2020-10-27 21:00:00 13 4 Nordeste 8 Nordeste 0 -- -- 72
2020-10-27 20:00:00 13.6 3 Nordeste 6 Norte 0 -- -- 70
2020-10-27 19:00:00 15.9 3 Nordeste 5 Oeste 0 -- -- 65
2020-10-27 18:00:00 18.8 4 Oeste 11 Oeste 0 -- -- 56
2020-10-27 17:00:00 19.8 6 Sudoeste 14 Sudoeste 0 -- -- 54
2020-10-27 16:00:00 19.8 10 Sudoeste 17 Sudoeste 0 -- -- 55
2020-10-27 15:00:00 20.1 10 Sur 20 Sur 0 -- -- 55
2020-10-27 14:00:00 20.1 10 Sur 15 Sur 0 -- -- 49
2020-10-27 13:00:00 20.5 7 Sur 14 Sudoeste 0 -- -- 34
2020-10-27 12:00:00 19.7 8 Sur 13 Sur 0 -- -- 35
2020-10-27 11:00:00 18.9 6 Sur 12 Sur 0 -- -- 48
2020-10-27 10:00:00 17.9 2 Oeste 5 Sudoeste 0 -- -- 42
2020-10-27 09:00:00 12.1 2 Norte 8 Norte 0 -- -- 64
2020-10-27 08:00:00 10.2 3 Norte 9 Norte 0 -- -- 58
2020-10-27 07:00:00 10.9 4 Norte 12 Norte 0 -- -- 55
2020-10-27 06:00:00 12.1 5 Norte 13 Norte 0 -- -- 49
2020-10-27 05:00:00 11.8 4 Norte 14 Norte 0 -- -- 51
2020-10-27 04:00:00 11.6 6 Norte 11 Norte 0 -- -- 50
2020-10-27 03:00:00 12.2 5 Norte 14 Norte 0 -- -- 51
2020-10-27 02:00:00 12.3 3 Norte 11 Norte 0 -- -- 54
2020-10-27 01:00:00 13.2 7 Norte 14 Norte 0 -- -- 50
2020-10-27 00:00:00 13 7 Norte 14 Norte 0 -- -- 52
2020-10-26 23:00:00 12.4 5 Norte 11 Norte 0 -- -- 57
2020-10-26 22:00:00 13.2 7 Norte 11 Norte 0 -- -- 55
2020-10-26 21:00:00 13.6 6 Norte 13 Norte 0 -- -- 56
2020-10-26 20:00:00 14.6 5 Norte 12 Norte 0 -- -- 55
2020-10-26 19:00:00 16.6 9 Noroeste 21 Noroeste 0 -- -- 48
2020-10-26 18:00:00 18.5 13 Noroeste 41 Noroeste 0 -- -- 43
2020-10-26 17:00:00 20.1 22 Noroeste 48 Noroeste 0 -- -- 39
2020-10-26 16:00:00 20.1 32 Noroeste 48 Noroeste 0 -- -- 38
2020-10-26 15:00:00 21.5 29 Noroeste 53 Noroeste 0 -- -- 35
2020-10-26 14:00:00 21.3 30 Noroeste 51 Noroeste 0 -- -- 34
2020-10-26 13:00:00 20.7 27 Noroeste 49 Norte 0 -- -- 37
2020-10-26 12:00:00 20 35 Noroeste 67 Noroeste 0 -- -- 38
2020-10-26 11:00:00 19.1 37 Noroeste 60 Noroeste 0 -- -- 41
2020-10-26 10:00:00 18.2 31 Noroeste 52 Noroeste 0 -- -- 44
2020-10-26 09:00:00 17.3 24 Noroeste 62 Noroeste 0 -- -- 46
2020-10-26 08:00:00 16.9 40 Norte 59 Noroeste 0 -- -- 47
2020-10-26 07:00:00 17.6 30 Noroeste 60 Noroeste 0 -- -- 46
2020-10-26 06:00:00 18.2 22 Noroeste 39 Noroeste 0 -- -- 51
2020-10-26 05:00:00 17.4 13 Oeste 35 Noroeste 0 -- -- 64
2020-10-26 04:00:00 17.4 24 Noroeste 35 Noroeste 0 -- -- 66
2020-10-26 03:00:00 16.5 21 Noroeste 34 Noroeste 0 -- -- 77
2020-10-26 02:00:00 16.7 3 Norte 10 Norte 0 -- -- 83
2020-10-26 01:00:00 16.1 4 Nordeste 10 Norte 0 -- -- 82
2020-10-26 00:00:00 16.8 5 Noroeste 17 Noroeste 0 -- -- 79
2020-10-25 23:00:00 17.8 8 Oeste 21 Oeste 0 -- -- 78
2020-10-25 22:00:00 17.9 7 Noroeste 19 Noroeste 0 -- -- 70
2020-10-25 21:00:00 17.1 9 Noroeste 13 Noroeste 0 -- -- 67
2020-10-25 20:00:00 18.1 4 Noroeste 12 Noroeste 0 -- -- 61
2020-10-25 19:00:00 19.8 10 Noroeste 26 Noroeste 0 -- -- 53
2020-10-25 18:00:00 21.9 20 Noroeste 35 Noroeste 0 -- -- 48
2020-10-25 17:00:00 23.8 21 Noroeste 37 Oeste 0 -- -- 43
2020-10-25 16:00:00 24.4 19 Noroeste 35 Noroeste 0 -- -- 40
2020-10-25 15:00:00 21.1 21 Sudoeste 34 Sudoeste 0 -- -- 60
2020-10-25 14:00:00 21 16 Sudoeste 32 Sudoeste 0 -- -- 61
2020-10-25 13:00:00 20.7 17 Sudoeste 27 Oeste 0 -- -- 64
2020-10-25 12:00:00 20.5 8 Sudoeste 15 Sudoeste 0 -- -- 64
2020-10-25 11:00:00 19.2 8 Sudoeste 14 Oeste 0 -- -- 62
2020-10-25 10:00:00 18.6 4 Sudoeste 12 Sudoeste 0 -- -- 61
2020-10-25 09:00:00 13.2 3 Norte 7 Norte 0 -- -- 81
2020-10-25 08:00:00 11.5 0 Calma 13 Norte 0 -- -- 85
2020-10-25 07:00:00 12.1 5 Norte 13 Norte 0 -- -- 79
2020-10-25 06:00:00 13.5 5 Norte 13 Norte 0 -- -- 72
2020-10-25 05:00:00 13.9 8 Norte 12 Norte 0 -- -- 71
2020-10-25 04:00:00 13.5 6 Norte 10 Norte 0 -- -- 74
2020-10-25 03:00:00 14.7 5 Norte 17 Norte 0 -- -- 69
2020-10-25 02:00:00 15.2 9 Norte 16 Norte 0 -- -- 65
2020-10-25 01:00:00 16 6 Norte 14 Norte 0 -- -- 65
2020-10-25 00:00:00 16.3 5 Nordeste 11 Norte 0 -- -- 67
2020-10-24 23:00:00 16.3 5 Norte 13 Nordeste 0 -- -- 70
2020-10-24 22:00:00 16.3 5 Norte 13 Norte 0 -- -- 71
2020-10-24 21:00:00 16.2 4 Norte 8 Norte 0 -- -- 73
2020-10-24 20:00:00 18.1 3 Nordeste 5 Este 0 -- -- 73
2020-10-24 19:00:00 21 4 Sur 12 Sudoeste 0 -- -- 62
2020-10-24 18:00:00 21.1 9 Sudoeste 15 Sudoeste 0 -- -- 65
2020-10-24 17:00:00 21.6 8 Sudoeste 17 Sudoeste 0 -- -- 65
2020-10-24 16:00:00 21.4 9 Sudoeste 17 Sudoeste 0 -- -- 65
2020-10-24 15:00:00 21.8 8 Sudoeste 17 Sudoeste 0 -- -- 66
2020-10-24 14:00:00 21.9 7 Sudoeste 14 Sur 0 -- -- 54
2020-10-24 13:00:00 20.6 8 Sur 13 Sur 0 -- -- 56
2020-10-24 12:00:00 20.4 10 Sur 14 Sudoeste 0 -- -- 55
2020-10-24 11:00:00 19.6 3 Sudoeste 7 Sur 0 -- -- 58
2020-10-24 10:00:00 14.3 2 Norte 6 Norte 0 -- -- 82
2020-10-24 09:00:00 12.8 3 Nordeste 11 Norte 0 -- -- 80
2020-10-24 08:00:00 12.3 4 Norte 7 Nordeste 0 -- -- 82
2020-10-24 07:00:00 13.2 0 Calma 14 Norte 0 -- -- 79
2020-10-24 06:00:00 14.6 6 Norte 14 Norte 0 -- -- 73
2020-10-24 05:00:00 15.9 10 Norte 20 Norte 0 -- -- 67
2020-10-24 04:00:00 15.9 10 Norte 21 Norte 0 -- -- 67
2020-10-24 03:00:00 14.9 6 Norte 14 Norte 0 -- -- 70
2020-10-24 02:00:00 15.1 6 Norte 17 Norte 0 -- -- 69
2020-10-24 01:00:00 15.6 7 Nordeste 16 Norte 0 -- -- 69
2020-10-24 00:00:00 15.5 8 Norte 13 Norte 0 -- -- 75
2020-10-23 23:00:00 16.1 5 Norte 13 Norte 0 -- -- 76
2020-10-23 22:00:00 16.4 5 Norte 10 Norte 0 -- -- 83
2020-10-23 21:00:00 16.8 5 Norte 11 Norte 0 -- -- 84
2020-10-23 20:00:00 18.6 2 Norte 10 Noroeste 0 -- -- 75
2020-10-23 19:00:00 20.7 3 Sur 19 Sudoeste 0 -- -- 70
2020-10-23 18:00:00 21.3 9 Oeste 24 Sudoeste 0 -- -- 68
2020-10-23 17:00:00 20.8 11 Sudoeste 30 Sudoeste 0 -- -- 75
2020-10-23 16:00:00 20.9 9 Sudoeste 25 Sudoeste 0 -- -- 76
2020-10-23 15:00:00 20.3 12 Oeste 29 Sudoeste 0 -- -- 76
2020-10-23 14:00:00 20.4 13 Sudoeste 24 Oeste 0 -- -- 70
2020-10-23 13:00:00 20.9 10 Sudoeste 23 Oeste 0 -- -- 67
2020-10-23 12:00:00 21 12 Noroeste 25 Noroeste 0 -- -- 62
2020-10-23 11:00:00 18.7 13 Noroeste 19 Noroeste 0 -- -- 72
2020-10-23 10:00:00 15.2 4 Norte 13 Norte 0 -- -- 85
2020-10-23 09:00:00 13.7 6 Norte 12 Norte 0 -- -- 88
2020-10-23 08:00:00 13.8 7 Norte 13 Norte 0 -- -- 91
2020-10-23 07:00:00 14.3 5 Norte 11 Norte 0 -- -- 92
2020-10-23 06:00:00 14.8 4 Norte 9 Norte 0 -- -- 92
2020-10-23 05:00:00 15 5 Norte 12 Norte 0 -- -- 93
2020-10-23 04:00:00 15 5 Norte 12 Norte 0 -- -- 94
2020-10-23 03:00:00 15.2 5 Norte 10 Norte 0 -- -- 95
2020-10-23 02:00:00 15.5 4 Norte 8 Nordeste 0 -- -- 96
2020-10-23 01:00:00 15.4 5 Norte 9 Nordeste 0 -- -- 96
2020-10-23 00:00:00 15.8 4 Norte 8 Norte 0 -- -- 95
2020-10-22 23:00:00 16.8 2 Noroeste 5 Norte 0 -- -- 95
2020-10-22 22:00:00 16.9 0 Calma 4 Nordeste 0 -- -- 95
2020-10-22 21:00:00 16.8 3 Norte 9 Nordeste 0 -- -- 94
2020-10-22 20:00:00 16.9 4 Este 9 Nordeste 0.4 -- -- 93
2020-10-22 19:00:00 17.3 3 Sudeste 8 Sudeste 0.8 -- -- 93
2020-10-22 18:00:00 17.6 4 Este 9 Este 3.2 -- -- 92
2020-10-22 17:00:00 18 4 Este 9 Sudeste 2.6 -- -- 91
2020-10-22 16:00:00 18.3 3 Este 9 Sudeste 2.6 -- -- 91
2020-10-22 15:00:00 19.2 4 Sur 9 Sudeste 0.4 -- -- 87
2020-10-22 14:00:00 18.5 4 Este 10 Este 0.4 -- -- 92
2020-10-22 13:00:00 17.6 2 Sudoeste 4 Sudoeste 1 -- -- 94
2020-10-22 12:00:00 16.9 0 Calma 4 Sudoeste 0.8 -- -- 94
2020-10-22 11:00:00 16.6 3 Oeste 6 Oeste 1.8 -- -- 94
2020-10-22 10:00:00 16.2 4 Sur 7 Sudeste 0.4 -- -- 93
2020-10-22 09:00:00 15.8 2 Nordeste 6 Norte 0.4 -- -- 93
2020-10-22 08:00:00 16 3 Norte 13 Nordeste 2.4 -- -- 91
2020-10-22 07:00:00 16.4 7 Norte 22 Oeste 2 -- -- 86
2020-10-22 06:00:00 17.1 3 Nordeste 6 Nordeste 0 -- -- 78
2020-10-22 05:00:00 17 3 Nordeste 8 Norte 0 -- -- 77
2020-10-22 04:00:00 17 4 Norte 7 Norte 0 -- -- 75
2020-10-22 03:00:00 18.5 4 Este 15 Nordeste 0 -- -- 69
2020-10-22 02:00:00 19 6 Nordeste 14 Este 0 -- -- 66
2020-10-22 01:00:00 18.5 6 Este 17 Sudeste 0 -- -- 71
2020-10-22 00:00:00 18.1 6 Sur 17 Sudeste 0 -- -- 83
2020-10-21 23:00:00 18.4 4 Este 9 Nordeste 0 -- -- 73
2020-10-21 22:00:00 18.1 4 Nordeste 5 Norte 0 -- -- 86
2020-10-21 21:00:00 18.5 3 Sudeste 8 Este 0 -- -- 86
2020-10-21 20:00:00 18.6 5 Sudeste 13 Sudeste 0 -- -- 85
2020-10-21 19:00:00 20.6 5 Norte 9 Sudoeste 0 -- -- 72
2020-10-21 18:00:00 23.1 6 Noroeste 15 Noroeste 0 -- -- 54
2020-10-21 17:00:00 23.2 13 Noroeste 17 Norte 0 -- -- 57
2020-10-21 16:00:00 23.3 11 Noroeste 16 Norte 0 -- -- 58
2020-10-21 15:00:00 23.8 7 Noroeste 20 Noroeste 0 -- -- 58
2020-10-21 14:00:00 23.2 11 Noroeste 21 Noroeste 0 -- -- 61
2020-10-21 13:00:00 23.1 10 Noroeste 18 Norte 0 -- -- 63
2020-10-21 12:00:00 22.5 10 Norte 21 Noroeste 0 -- -- 66
2020-10-21 11:00:00 20.6 7 Norte 26 Norte 0 -- -- 75
2020-10-21 10:00:00 19.3 15 Noroeste 30 Noroeste 0 -- -- 80
2020-10-21 09:00:00 19 17 Oeste 39 Oeste 0 -- -- 80
2020-10-21 08:00:00 17.8 7 Nordeste 16 Nordeste 0 -- -- 87
2020-10-21 07:00:00 16.8 5 Nordeste 15 Norte 0 -- -- 92
2020-10-21 06:00:00 16 5 Norte 9 Norte 0 -- -- 94
2020-10-21 05:00:00 16.4 6 Nordeste 8 Nordeste 0 -- -- 93
2020-10-21 04:00:00 17.8 4 Nordeste 8 Nordeste 0.2 -- -- 92
2020-10-21 03:00:00 18.7 3 Este 11 Sudoeste 1.4 -- -- 92
2020-10-21 02:00:00 19.4 5 Oeste 23 Noroeste 0.2 -- -- 89
2020-10-21 01:00:00 20.5 7 Noroeste 20 Norte 0.8 -- -- 81
2020-10-21 00:00:00 21 5 Nordeste 20 Nordeste 0 -- -- 67
2020-10-20 23:00:00 19.7 5 Nordeste 9 Norte 0 -- -- 77
2020-10-20 22:00:00 19.3 3 Sudoeste 6 Sudoeste 0 -- -- 81
2020-10-20 21:00:00 19.4 3 Norte 14 Oeste 0 -- -- 80
2020-10-20 20:00:00 19.6 5 Sudoeste 10 Sudoeste 0 -- -- 79
2020-10-20 19:00:00 19.5 0 Calma 10 Sudoeste 0 -- -- 79
2020-10-20 18:00:00 20.4 5 Sudoeste 23 Sur 0 -- -- 76
2020-10-20 17:00:00 22.3 14 Sur 28 Sur 0 -- -- 67
2020-10-20 16:00:00 23 18 Sur 29 Sudeste 0 -- -- 57
2020-10-20 15:00:00 21.9 13 Sudeste 28 Sur 0 -- -- 56
2020-10-20 14:00:00 21.8 15 Sur 28 Sudeste 0 -- -- 62
2020-10-20 13:00:00 20.7 11 Sur 18 Sudeste 0 -- -- 69
2020-10-20 12:00:00 20.5 10 Sur 19 Sur 0 -- -- 74
2020-10-20 11:00:00 20.2 7 Sur 14 Sur 0 -- -- 70
2020-10-20 10:00:00 17.6 2 Noroeste 4 Noroeste 0 -- -- 78
2020-10-20 09:00:00 15.1 4 Norte 6 Norte 0 -- -- 86
2020-10-20 08:00:00 15.8 4 Este 7 Este 0 -- -- 83
2020-10-20 07:00:00 15.9 4 Norte 6 Nordeste 0 -- -- 81
2020-10-20 06:00:00 16.5 3 Norte 8 Nordeste 0 -- -- 80
2020-10-20 05:00:00 16.2 5 Norte 8 Norte 0 -- -- 81
2020-10-20 04:00:00 16.1 4 Norte 9 Nordeste 0 -- -- 78
2020-10-20 03:00:00 15.8 3 Nordeste 9 Norte 0 -- -- 84
2020-10-20 02:00:00 16 4 Nordeste 9 Norte 0 -- -- 81
2020-10-20 01:00:00 15.7 4 Nordeste 8 Nordeste 0 -- -- 86
2020-10-20 00:00:00 15.9 3 Norte 7 Norte 0 -- -- 81
2020-10-19 23:00:00 16.3 3 Nordeste 6 Nordeste 0 -- -- 80
2020-10-19 22:00:00 16.3 0 Calma 6 Nordeste 0 -- -- 81
2020-10-19 21:00:00 17 5 Nordeste 7 Nordeste 0 -- -- 77
2020-10-19 20:00:00 18.8 2 Sur 7 Sudoeste 0 -- -- 66
2020-10-19 19:00:00 19.7 5 Sur 15 Sur 0 -- -- 63
2020-10-19 18:00:00 21.5 11 Sur 20 Sur 0 -- -- 52
2020-10-19 17:00:00 22.5 13 Sur 23 Sur 0 -- -- 46
2020-10-19 16:00:00 22.7 12 Sur 21 Sur 0 -- -- 42
2020-10-19 15:00:00 23.3 12 Sur 24 Sur 0 -- -- 37
2020-10-19 14:00:00 23.3 12 Sudoeste 24 Sur 0 -- -- 33
2020-10-19 13:00:00 23.2 14 Sudoeste 22 Sur 0 -- -- 37
2020-10-19 12:00:00 22.7 10 Sudoeste 14 Sur 0 -- -- 32
2020-10-19 11:00:00 21.4 4 Sur 8 Sur 0 -- -- 35
2020-10-19 10:00:00 15.6 5 Norte 10 Nordeste 0 -- -- 52
2020-10-19 09:00:00 13.5 5 Norte 10 Norte 0 -- -- 56
2020-10-19 08:00:00 13.8 4 Norte 12 Norte 0 -- -- 55
2020-10-19 07:00:00 12.9 5 Norte 9 Norte 0 -- -- 58
2020-10-19 06:00:00 13.6 4 Nordeste 7 Norte 0 -- -- 55
2020-10-19 05:00:00 13.1 4 Norte 9 Norte 0 -- -- 57
2020-10-19 04:00:00 13.6 5 Norte 8 Norte 0 -- -- 58
2020-10-19 03:00:00 14.2 5 Norte 9 Norte 0 -- -- 57
2020-10-19 02:00:00 13.9 6 Norte 10 Norte 0 -- -- 61
2020-10-19 01:00:00 13 4 Norte 10 Norte 0 -- -- 69
2020-10-19 00:00:00 14.4 5 Norte 12 Norte 0 -- -- 65
2020-10-18 23:00:00 14.1 5 Norte 10 Norte 0 -- -- 69
2020-10-18 22:00:00 14.4 4 Nordeste 6 Norte 0 -- -- 69
2020-10-18 21:00:00 15.3 2 Nordeste 3 Nordeste 0 -- -- 68
2020-10-18 20:00:00 17.8 0 Calma 9 Sur 0 -- -- 60
2020-10-18 19:00:00 20.2 6 Sur 17 Sur 0 -- -- 55
2020-10-18 18:00:00 21.2 10 Sur 21 Sudeste 0 -- -- 55
2020-10-18 17:00:00 21.5 13 Sur 23 Sur 0 -- -- 59
2020-10-18 16:00:00 20.9 12 Sur 22 Sur 0 -- -- 57
2020-10-18 15:00:00 20.6 13 Sur 28 Sudeste 0 -- -- 62
2020-10-18 14:00:00 21.1 13 Sur 22 Sudeste 0 -- -- 60
2020-10-18 13:00:00 21.4 12 Sur 20 Sudoeste 0 -- -- 55
2020-10-18 12:00:00 20.6 9 Sur 15 Sur 0 -- -- 57
2020-10-18 11:00:00 18.8 6 Sudoeste 10 Sudoeste 0 -- -- 62
2020-10-18 10:00:00 14.4 2 Sudoeste 4 Norte 0 -- -- 81
2020-10-18 09:00:00 11.4 0 Calma 7 Norte 0 -- -- 85
2020-10-18 08:00:00 12 5 Norte 9 Norte 0 -- -- 81
2020-10-18 07:00:00 11.7 4 Norte 6 Norte 0 -- -- 84
2020-10-18 06:00:00 11.4 3 Norte 6 Nordeste 0 -- -- 84
2020-10-18 05:00:00 11.5 3 Norte 8 Norte 0 -- -- 86
2020-10-18 04:00:00 11.7 4 Norte 8 Norte 0 -- -- 82
2020-10-18 03:00:00 11.5 3 Nordeste 5 Norte 0 -- -- 88
2020-10-18 02:00:00 12.3 4 Norte 6 Norte 0 -- -- 87
2020-10-18 01:00:00 12.3 3 Norte 4 Norte 0 -- -- 91
2020-10-18 00:00:00 12.6 3 Norte 5 Norte 0 -- -- 89
2020-10-17 23:00:00 13.2 2 Norte 5 Norte 0 -- -- 88
2020-10-17 22:00:00 14.2 0 Calma 2 Este 0 -- -- 89
2020-10-17 21:00:00 15.3 2 Nordeste 4 Nordeste 0 -- -- 86
2020-10-17 20:00:00 17.1 0 Calma 6 Sudoeste 0 -- -- 82
2020-10-17 19:00:00 19.6 5 Sudoeste 9 Sur 0 -- -- 72
2020-10-17 18:00:00 20.5 6 Sudoeste 12 Sudoeste 0 -- -- 68
2020-10-17 17:00:00 20.5 7 Sudoeste 13 Sur 0 -- -- 68
2020-10-17 16:00:00 20.8 9 Sur 17 Sur 0 -- -- 65
2020-10-17 15:00:00 21.3 11 Sur 17 Sur 0 -- -- 61
2020-10-17 14:00:00 21.2 11 Sur 17 Sur 0 -- -- 54
2020-10-17 13:00:00 20.6 8 Sudoeste 14 Sur 0 -- -- 53
2020-10-17 12:00:00 19.6 8 Sudoeste 14 Sur 0 -- -- 49
2020-10-17 11:00:00 19.3 0 Calma 5 Sur 0 -- -- 50
2020-10-17 10:00:00 14.2 0 Calma 5 Norte 0 -- -- 70
2020-10-17 09:00:00 10.9 3 Norte 7 Norte 0 -- -- 82
2020-10-17 08:00:00 11.6 5 Norte 10 Norte 0 -- -- 79
2020-10-17 07:00:00 11.5 3 Norte 8 Norte 0 -- -- 79
2020-10-17 06:00:00 11.5 6 Norte 8 Norte 0 -- -- 84
2020-10-17 05:00:00 10.9 2 Nordeste 7 Norte 0 -- -- 84
2020-10-17 04:00:00 11.7 4 Norte 8 Norte 0 -- -- 82
2020-10-17 03:00:00 11.9 4 Norte 6 Norte 0 -- -- 86
2020-10-17 02:00:00 12 3 Nordeste 5 Nordeste 0 -- -- 92
2020-10-17 01:00:00 12.8 0 Calma 6 Norte 0 -- -- 91
2020-10-17 00:00:00 12.9 0 Calma 5 Norte 0 -- -- 90
2020-10-16 23:00:00 13.9 3 Nordeste 6 Nordeste 0 -- -- 90
2020-10-16 22:00:00 14.2 3 Nordeste 5 Nordeste 0 -- -- 87
2020-10-16 21:00:00 15.3 2 Nordeste 4 Sur 0 -- -- 84
2020-10-16 20:00:00 17.3 2 Sur 6 Sudoeste 0 -- -- 77
2020-10-16 19:00:00 19.5 5 Sur 14 Sur 0 -- -- 70
2020-10-16 18:00:00 20.5 6 Sur 15 Sudoeste 0 -- -- 67
2020-10-16 17:00:00 21.1 10 Sur 18 Sur 0 -- -- 65
2020-10-16 16:00:00 20.9 12 Sur 21 Sur 0 -- -- 61
2020-10-16 15:00:00 22 12 Sur 23 Sur 0 -- -- 54
2020-10-16 14:00:00 21.4 12 Sur 21 Sur 0 -- -- 54
2020-10-16 13:00:00 21.7 9 Sur 17 Sur 0 -- -- 51
2020-10-16 12:00:00 21.6 9 Sur 19 Sur 0 -- -- 43
2020-10-16 11:00:00 20.7 6 Sur 11 Sur 0 -- -- 42
2020-10-16 10:00:00 15.7 8 Norte 12 Norte 0 -- -- 49
2020-10-16 09:00:00 12.5 4 Nordeste 10 Norte 0 -- -- 59
2020-10-16 08:00:00 12.3 3 Nordeste 6 Norte 0 -- -- 68
2020-10-16 07:00:00 12 3 Nordeste 5 Nordeste 0 -- -- 74
2020-10-16 06:00:00 13.3 2 Nordeste 9 Este 0 -- -- 62
2020-10-16 05:00:00 14.2 5 Este 13 Este 0 -- -- 55
2020-10-16 04:00:00 13.4 4 Norte 9 Noroeste 0 -- -- 51
2020-10-16 03:00:00 13.5 4 Norte 11 Noroeste 0 -- -- 51
2020-10-16 02:00:00 13.5 4 Norte 9 Norte 0 -- -- 51
2020-10-16 01:00:00 13.9 5 Norte 13 Nordeste 0 -- -- 50
2020-10-16 00:00:00 14.2 4 Norte 9 Norte 0 -- -- 51
2020-10-15 23:00:00 15.8 4 Norte 13 Norte 0 -- -- 49
2020-10-15 22:00:00 15.4 6 Norte 12 Norte 0 -- -- 57
2020-10-15 21:00:00 16.4 3 Nordeste 6 Norte 0 -- -- 60
2020-10-15 20:00:00 19.1 3 Sudeste 18 Sudoeste 0 -- -- 54
2020-10-15 19:00:00 21.9 3 Sudoeste 12 Sudoeste 0 -- -- 47
2020-10-15 18:00:00 21.9 7 Sudoeste 15 Sudoeste 0 -- -- 54
2020-10-15 17:00:00 21.5 10 Sudoeste 23 Sudoeste 0 -- -- 58
2020-10-15 16:00:00 21.8 11 Sudoeste 18 Sudoeste 0 -- -- 55
2020-10-15 15:00:00 21.3 11 Sudoeste 17 Sudoeste 0 -- -- 50
2020-10-15 14:00:00 22 10 Sudoeste 18 Sudoeste 0 -- -- 49
2020-10-15 13:00:00 21.4 10 Sudoeste 19 Sudoeste 0 -- -- 51
2020-10-15 12:00:00 20.6 8 Sudoeste 13 Sudoeste 0 -- -- 49
2020-10-15 11:00:00 19.4 7 Sudoeste 14 Sudoeste 0 -- -- 48
2020-10-15 10:00:00 17.1 0 Calma 2 Sudeste 0 -- -- 75
2020-10-15 09:00:00 14.1 3 Nordeste 6 Nordeste 0 -- -- 85
2020-10-15 08:00:00 14.1 2 Nordeste 6 Nordeste 0 -- -- 81
2020-10-15 07:00:00 14.5 0 Calma 9 Nordeste 0 -- -- 74
2020-10-15 06:00:00 13.5 5 Norte 8 Norte 0 -- -- 75
2020-10-15 05:00:00 13 0 Calma 6 Norte 0 -- -- 63
2020-10-15 04:00:00 13.4 2 Norte 6 Norte 0 -- -- 56
2020-10-15 03:00:00 14.2 4 Norte 12 Norte 0 -- -- 53
2020-10-15 02:00:00 15.6 5 Norte 10 Norte 0 -- -- 49
2020-10-15 01:00:00 17.7 6 Norte 19 Noroeste 0 -- -- 43
2020-10-15 00:00:00 19.3 10 Noroeste 29 Norte 0 -- -- 38
2020-10-14 23:00:00 19.5 8 Noroeste 28 Noroeste 0 -- -- 37
2020-10-14 22:00:00 20.8 16 Noroeste 31 Noroeste 0 -- -- 32
2020-10-14 21:00:00 21.4 14 Noroeste 26 Noroeste 0 -- -- 30
2020-10-14 20:00:00 22.3 16 Norte 35 Noroeste 0 -- -- 31
2020-10-14 19:00:00 24.1 27 Noroeste 44 Norte 0 -- -- 29
2020-10-14 18:00:00 25.6 22 Noroeste 37 Noroeste 0 -- -- 29
2020-10-14 17:00:00 26.6 21 Noroeste 44 Noroeste 0 -- -- 25
2020-10-14 16:00:00 25.3 19 Oeste 39 Sudoeste 0 -- -- 30
2020-10-14 15:00:00 21.2 26 Sudoeste 45 Oeste 0 -- -- 56
2020-10-14 14:00:00 19.3 24 Sudoeste 46 Sudoeste 0 -- -- 68
2020-10-14 13:00:00 20 27 Sudoeste 41 Sudoeste 0 -- -- 66
2020-10-14 12:00:00 23.1 13 Oeste 24 Sudoeste 0 -- -- 51
2020-10-14 11:00:00 20.6 10 Sudoeste 21 Sudoeste 0 -- -- 64
2020-10-14 10:00:00 17.3 3 Sur 6 Sudeste 0 -- -- 64
2020-10-14 09:00:00 13.6 2 Nordeste 10 Norte 0 -- -- 71
2020-10-14 08:00:00 14.2 2 Sur 9 Nordeste 0 -- -- 70
2020-10-14 07:00:00 13.9 5 Nordeste 9 Norte 0 -- -- 85
2020-10-14 06:00:00 13.3 4 Noroeste 10 Norte 0 -- -- 72
2020-10-14 05:00:00 12.6 4 Nordeste 8 Nordeste 0 -- -- 89
2020-10-14 04:00:00 12.6 3 Norte 5 Norte 0 -- -- 86
2020-10-14 03:00:00 13 2 Nordeste 6 Norte 0 -- -- 84
2020-10-14 02:00:00 13.5 4 Norte 7 Norte 0 -- -- 87
2020-10-14 01:00:00 14.3 3 Nordeste 5 Norte 0 -- -- 91
2020-10-14 00:00:00 14.6 2 Nordeste 6 Nordeste 0 -- -- 89
2020-10-13 23:00:00 14.9 4 Norte 5 Norte 0 -- -- 87
2020-10-13 22:00:00 15.9 3 Nordeste 7 Este 0 -- -- 86
2020-10-13 21:00:00 17 0 Calma 7 Oeste 0 -- -- 82
2020-10-13 20:00:00 18.7 3 Oeste 10 Sudoeste 0 -- -- 77
2020-10-13 19:00:00 20.6 5 Sudoeste 15 Sudoeste 0 -- -- 68
2020-10-13 18:00:00 21.4 8 Sudoeste 17 Sudoeste 0 -- -- 64
2020-10-13 17:00:00 21.5 9 Sudoeste 15 Sudoeste 0 -- -- 62
2020-10-13 16:00:00 21.4 9 Sudoeste 16 Sudoeste 0 -- -- 57
2020-10-13 15:00:00 21.9 9 Sudoeste 16 Sudoeste 0 -- -- 55
2020-10-13 14:00:00 22 10 Sudoeste 14 Sudoeste 0 -- -- 57
2020-10-13 13:00:00 21.7 9 Sur 14 Sudoeste 0 -- -- 58
2020-10-13 12:00:00 20.7 9 Sudoeste 13 Sudoeste 0 -- -- 61
2020-10-13 11:00:00 -- -- -- -- -- -- -- -- --
2020-10-13 10:00:00 -- -- -- -- -- -- -- -- --
2020-10-13 09:00:00 13.7 7 Norte 12 Norte 0 -- -- 73
2020-10-13 08:00:00 13.6 6 Norte 10 Norte 0 -- -- 80
2020-10-13 07:00:00 13.6 5 Norte 10 Norte 0 -- -- 81
2020-10-13 06:00:00 14.3 5 Norte 11 Norte 0 -- -- 78
2020-10-13 05:00:00 14.2 4 Norte 10 Norte 0 -- -- 79
2020-10-13 04:00:00 14.4 7 Norte 12 Norte 0 -- -- 76
2020-10-13 03:00:00 15 5 Norte 10 Norte 0 -- -- 74
2020-10-13 02:00:00 14.5 6 Norte 9 Norte 0 -- -- 76
2020-10-13 01:00:00 -- -- -- -- -- -- -- -- --
2020-10-13 00:00:00 14.5 5 Norte 9 Nordeste 0 -- -- 77
2020-10-12 23:00:00 15.3 5 Nordeste 11 Norte 0 -- -- 74
2020-10-12 22:00:00 15.8 3 Norte 8 Sudeste 0 -- -- 71
2020-10-12 21:00:00 17.3 3 Este 9 Sudeste 0 -- -- 65
2020-10-12 20:00:00 18.8 5 Sudeste 15 Sur 0 -- -- 61
2020-10-12 19:00:00 20.8 9 Sudeste 20 Sudeste 0 -- -- 57
2020-10-12 18:00:00 21.5 9 Sudeste 20 Sudeste 0 -- -- 56
2020-10-12 17:00:00 21.6 12 Sur 22 Sudeste 0 -- -- 54
2020-10-12 16:00:00 22.1 13 Sur 22 Sudeste 0 -- -- 58
2020-10-12 15:00:00 21.9 14 Sudeste 23 Sudeste 0 -- -- 58
2020-10-12 14:00:00 22.8 10 Sudeste 23 Sudeste 0 -- -- 53
2020-10-12 13:00:00 22.8 12 Sur 19 Sur 0 -- -- 48
2020-10-12 12:00:00 20.8 8 Sur 14 Sur 0 -- -- 65
2020-10-12 11:00:00 20.9 5 Sudoeste 12 Sur 0 -- -- 59
2020-10-12 10:00:00 18.1 6 Noroeste 13 Noroeste 0 -- -- 64
2020-10-12 09:00:00 16.9 2 Sudeste 17 Norte 0 -- -- 69
2020-10-12 08:00:00 16.8 7 Norte 13 Norte 0 -- -- 69
2020-10-12 07:00:00 15 5 Norte 9 Norte 0 -- -- 81
2020-10-12 06:00:00 15.6 5 Norte 9 Norte 0 -- -- 82
2020-10-12 05:00:00 15.7 5 Norte 7 Norte 0 -- -- 90
2020-10-12 04:00:00 -- -- -- -- -- -- -- -- --
2020-10-12 03:00:00 14.6 4 Norte 6 Norte 0 -- -- 90
2020-10-12 02:00:00 14.7 4 Nordeste 6 Norte 0 -- -- 89
2020-10-12 01:00:00 15.1 3 Nordeste 5 Norte 0 -- -- 87
2020-10-12 00:00:00 15.5 3 Nordeste 6 Norte 0 -- -- 85
2020-10-11 23:00:00 16.7 3 Nordeste 6 Nordeste 0 -- -- 81
2020-10-11 22:00:00 17.1 3 Nordeste 5 Nordeste 0 -- -- 81
2020-10-11 21:00:00 -- -- -- -- -- -- -- -- --
2020-10-11 20:00:00 -- -- -- -- -- -- -- -- --
2020-10-11 19:00:00 22.2 5 Sur 11 Sur 0 -- -- 66
2020-10-11 18:00:00 22.9 8 Sur 17 Sur 0 -- -- 69
2020-10-11 17:00:00 23.9 10 Sur 17 Sudoeste 0 -- -- 63
2020-10-11 16:00:00 24.4 10 Sudoeste 15 Sudoeste 0 -- -- 57
2020-10-11 15:00:00 24.2 9 Sudoeste 15 Sudoeste 0 -- -- 58
2020-10-11 14:00:00 23.5 10 Sur 16 Sur 0 -- -- 61
2020-10-11 13:00:00 22.7 7 Sur 11 Sudoeste 0 -- -- 64
2020-10-11 12:00:00 21.4 4 Sudoeste 7 Sudoeste 0 -- -- 70
2020-10-11 11:00:00 20.6 4 Sudoeste 11 Sur 0 -- -- 75
2020-10-11 10:00:00 19.5 2 Noroeste 6 Norte 0 -- -- 76
2020-10-11 09:00:00 18.5 3 Norte 5 Nordeste 0 -- -- 82
2020-10-11 08:00:00 18.4 0 Calma 2 Nordeste 0 -- -- 87
2020-10-11 07:00:00 18.4 0 Calma 3 Sudoeste 0 -- -- 87
2020-10-11 06:00:00 18.2 0 Calma 2 Sudeste 0 -- -- 89
2020-10-11 05:00:00 17.8 0 Calma 4 Sudeste 0 -- -- 91
2020-10-11 04:00:00 17.1 0 Calma 5 Nordeste 0 -- -- 94
2020-10-11 03:00:00 15.9 3 Norte 7 Norte 0 -- -- 93
2020-10-11 02:00:00 16 4 Norte 5 Norte 0 -- -- 93
2020-10-11 01:00:00 16.1 3 Norte 5 Norte 0 -- -- 92
2020-10-11 00:00:00 16.3 0 Calma 5 Nordeste 0 -- -- 90
2020-10-10 23:00:00 16.7 3 Norte 5 Norte 0 -- -- 89
2020-10-10 22:00:00 17.4 2 Nordeste 5 Norte 0 -- -- 87
2020-10-10 21:00:00 18.4 0 Calma 4 Norte 0 -- -- 83
2020-10-10 20:00:00 20.3 0 Calma 5 Sur 0 -- -- 76
2020-10-10 19:00:00 22 4 Sudoeste 11 Sudoeste 0 -- -- 71
2020-10-10 18:00:00 23.3 8 Sur 15 Sur 0 -- -- 67
2020-10-10 17:00:00 22.2 9 Sur 14 Sudeste 0 -- -- 69
2020-10-10 16:00:00 21.6 8 Sudeste 16 Sudeste 0 -- -- 75
2020-10-10 15:00:00 21.8 9 Sur 15 Sur 0 -- -- 75
2020-10-10 14:00:00 23 10 Sur 19 Sur 0 -- -- 70
2020-10-10 13:00:00 23.1 10 Sudeste 19 Sur 0 -- -- 70
2020-10-10 12:00:00 22.5 8 Sur 14 Sur 0 -- -- 70
2020-10-10 11:00:00 21 5 Sudoeste 8 Sur 0 -- -- 75
2020-10-10 10:00:00 18.7 0 Calma 6 Norte 0 -- -- 86
2020-10-10 09:00:00 15.6 4 Norte 6 Norte 0 -- -- 95
2020-10-10 08:00:00 14.9 2 Norte 6 Norte 0 -- -- 93
2020-10-10 07:00:00 15.3 5 Norte 7 Norte 0 -- -- 94
2020-10-10 06:00:00 15.5 3 Norte 5 Norte 0 -- -- 94
2020-10-10 05:00:00 15.8 0 Calma 4 Nordeste 0 -- -- 93
2020-10-10 04:00:00 16.1 0 Calma 8 Norte 0 -- -- 91
2020-10-10 03:00:00 16.6 4 Norte 8 Norte 0 -- -- 91
2020-10-10 02:00:00 16.5 4 Norte 7 Norte 0 -- -- 92
2020-10-10 01:00:00 16.7 2 Norte 4 Norte 0 -- -- 91
2020-10-10 00:00:00 17.2 3 Norte 6 Nordeste 0 -- -- 90
2020-10-09 23:00:00 17.7 2 Este 3 Este 0 -- -- 88
2020-10-09 22:00:00 18.3 0 Calma 4 Nordeste 0 -- -- 85
2020-10-09 21:00:00 19.4 3 Nordeste 5 Sudoeste 0 -- -- 81
2020-10-09 20:00:00 21.1 0 Calma 3 Sur 0 -- -- 74
2020-10-09 19:00:00 22 2 Sur 8 Sudoeste 0 -- -- 73
2020-10-09 18:00:00 22.8 3 Sur 12 Sudoeste 0 -- -- 70
2020-10-09 17:00:00 22.2 7 Sudoeste 18 Sudoeste 0 -- -- 72
2020-10-09 16:00:00 22.7 14 Sudoeste 20 Sudoeste 0 -- -- 70
2020-10-09 15:00:00 22.7 10 Sudoeste 18 Oeste 0 -- -- 72
2020-10-09 14:00:00 23.2 10 Sudoeste 15 Sudoeste 0 -- -- 71
2020-10-09 13:00:00 23.3 10 Sudoeste 17 Sudoeste 0 -- -- 69
2020-10-09 12:00:00 21.7 6 Sudoeste 13 Sudoeste 0 -- -- 78
2020-10-09 11:00:00 22.1 6 Sudoeste 13 Oeste 0 -- -- 72
2020-10-09 10:00:00 19.3 2 Norte 6 Norte 0 -- -- 80
2020-10-09 09:00:00 16.2 3 Norte 7 Norte 0 -- -- 86
2020-10-09 08:00:00 15.9 4 Norte 13 Noroeste 0 -- -- 80
2020-10-09 07:00:00 15.2 4 Norte 10 Noroeste 0 -- -- 82
2020-10-09 06:00:00 16 2 Norte 12 Nordeste 0 -- -- 80
2020-10-09 05:00:00 17.1 5 Norte 11 Norte 0 -- -- 81
2020-10-09 04:00:00 16.7 4 Norte 8 Norte 0 -- -- 82
2020-10-09 03:00:00 16.7 3 Norte 7 Norte 0 -- -- 85
2020-10-09 02:00:00 16.6 3 Norte 5 Norte 0 -- -- 80
2020-10-09 01:00:00 16.9 2 Norte 5 Nordeste 0 -- -- 76
2020-10-09 00:00:00 17.2 0 Calma 6 Norte 0 -- -- 73
2020-10-08 23:00:00 17.6 4 Norte 6 Norte 0 -- -- 74
2020-10-08 22:00:00 18 2 Nordeste 4 Nordeste 0 -- -- 74
2020-10-08 21:00:00 19.2 0 Calma 4 Nordeste 0 -- -- 70
2020-10-08 20:00:00 21.8 2 Sudeste 9 Sudoeste 0 -- -- 62
2020-10-08 19:00:00 24 5 Sudoeste 14 Sudoeste 0 -- -- 55
2020-10-08 18:00:00 24 8 Sudoeste 16 Oeste 0 -- -- 58
2020-10-08 17:00:00 23.9 11 Sudoeste 18 Sudoeste 0 -- -- 58
2020-10-08 16:00:00 24.2 10 Sudoeste 17 Sudoeste 0 -- -- 57
2020-10-08 15:00:00 25.2 9 Sudoeste 16 Sudoeste 0 -- -- 52
2020-10-08 14:00:00 24.7 6 Sudoeste 15 Sudoeste 0 -- -- 50
2020-10-08 13:00:00 24.7 7 Sudoeste 14 Sudoeste 0 -- -- 51
2020-10-08 12:00:00 24.7 8 Sudoeste 11 Sudoeste 0 -- -- 48
2020-10-08 11:00:00 23.8 5 Sudoeste 9 Sudoeste 0 -- -- 51
2020-10-08 10:00:00 20.6 0 Calma 5 Norte 0 -- -- 62
2020-10-08 09:00:00 16 4 Nordeste 6 Norte 0 -- -- 73
2020-10-08 08:00:00 15.9 4 Norte 6 Norte 0 -- -- 67
2020-10-08 07:00:00 16.1 4 Nordeste 7 Norte 0 -- -- 65
2020-10-08 06:00:00 17.7 3 Norte 10 Sudeste 0 -- -- 60
2020-10-08 05:00:00 17.5 5 Norte 8 Norte 0 -- -- 60
2020-10-08 04:00:00 17.1 0 Calma 4 Norte 0 -- -- 58
2020-10-08 03:00:00 18.3 4 Este 9 Norte 0 -- -- 53
2020-10-08 02:00:00 18 5 Norte 8 Norte 0 -- -- 54
2020-10-08 01:00:00 17.4 2 Norte 7 Norte 0 -- -- 61
2020-10-08 00:00:00 17.8 2 Norte 10 Nordeste 0 -- -- 55
2020-10-07 23:00:00 17.6 3 Nordeste 8 Norte 0 -- -- 59
2020-10-07 22:00:00 17.4 3 Norte 5 Norte 0 -- -- 62
2020-10-07 21:00:00 18.7 0 Calma 3 Norte 0 -- -- 63
2020-10-07 20:00:00 21.5 2 Sudoeste 5 Sudoeste 0 -- -- 56
2020-10-07 19:00:00 23.6 5 Sudoeste 9 Sur 0 -- -- 49
2020-10-07 18:00:00 24.7 5 Sudoeste 10 Sudoeste 0 -- -- 44
2020-10-07 17:00:00 24.1 7 Sudoeste 15 Sur 0 -- -- 46
2020-10-07 16:00:00 25.2 8 Sudoeste 13 Sudoeste 0 -- -- 45
2020-10-07 15:00:00 24.6 9 Sudoeste 16 Sur 0 -- -- 46
2020-10-07 14:00:00 24.7 10 Sur 15 Sur 0 -- -- 41
2020-10-07 13:00:00 23.1 9 Sudoeste 14 Sudoeste 0 -- -- 45
2020-10-07 12:00:00 22.2 9 Sur 12 Sudoeste 0 -- -- 53
2020-10-07 11:00:00 23.3 7 Sur 12 Sur 0 -- -- 53
2020-10-07 10:00:00 20 3 Norte 8 Norte 0 -- -- 62
2020-10-07 09:00:00 15.1 0 Calma 8 Norte 0 -- -- 75
2020-10-07 08:00:00 14.8 3 Norte 14 Nordeste 0 -- -- 73
2020-10-07 07:00:00 15.4 6 Norte 12 Norte 0 -- -- 71
2020-10-07 06:00:00 13.9 4 Norte 7 Norte 0 -- -- 77
2020-10-07 05:00:00 14.2 2 Norte 7 Norte 0 -- -- 77
2020-10-07 04:00:00 14.2 4 Norte 8 Nordeste 0 -- -- 79
2020-10-07 03:00:00 14.3 4 Nordeste 5 Nordeste 0 -- -- 80
2020-10-07 02:00:00 14.7 0 Calma 6 Norte 0 -- -- 79
2020-10-07 01:00:00 15.1 0 Calma 4 Norte 0 -- -- 83
2020-10-07 00:00:00 15.4 2 Norte 4 Norte 0 -- -- 77
2020-10-06 23:00:00 16.2 0 Calma 6 Sur 0 -- -- 77
2020-10-06 22:00:00 16.6 4 Norte 5 Norte 0 -- -- 85
2020-10-06 21:00:00 17.7 0 Calma 3 Nordeste 0 -- -- 81
2020-10-06 20:00:00 19.5 0 Calma 8 Sudoeste 0 -- -- 76
2020-10-06 19:00:00 21.1 6 Sudoeste 14 Sudoeste 0 -- -- 70
2020-10-06 18:00:00 22.8 8 Sur 16 Sudoeste 0 -- -- 62
2020-10-06 17:00:00 22.7 9 Sur 15 Sur 0 -- -- 61
2020-10-06 16:00:00 22.6 9 Sudoeste 19 Sur 0 -- -- 65
2020-10-06 15:00:00 22.5 10 Sur 19 Sur 0 -- -- 63
2020-10-06 14:00:00 22.9 12 Sur 19 Sur 0 -- -- 57
2020-10-06 13:00:00 23.2 11 Sur 17 Sur 0 -- -- 46
2020-10-06 12:00:00 22.1 6 Sudoeste 11 Sur 0 -- -- 48
2020-10-06 11:00:00 20.7 6 Sur 10 Sur 0 -- -- 52
2020-10-06 10:00:00 18.1 0 Calma 8 Sur 0 -- -- 55
2020-10-06 09:00:00 14.9 2 Este 12 Nordeste 0 -- -- 67
2020-10-06 08:00:00 14.3 5 Norte 11 Norte 0 -- -- 67
2020-10-06 07:00:00 13.3 0 Calma 6 Nordeste 0 -- -- 71
2020-10-06 06:00:00 13.7 0 Calma 6 Este 0 -- -- 67
2020-10-06 05:00:00 15.3 5 Nordeste 16 Norte 0 -- -- 58
2020-10-06 04:00:00 14 6 Norte 12 Norte 0 -- -- 67
2020-10-06 03:00:00 14 2 Norte 8 Norte 0 -- -- 76
2020-10-06 02:00:00 14.9 3 Norte 11 Noroeste 0 -- -- 78
2020-10-06 01:00:00 14.4 3 Norte 8 Nordeste 0 -- -- 72
2020-10-06 00:00:00 15.1 3 Sudeste 6 Norte 0 -- -- 71
2020-10-05 23:00:00 15.6 3 Nordeste 8 Norte 0 -- -- 73
2020-10-05 22:00:00 16.5 0 Calma 5 Norte 0 -- -- 70
2020-10-05 21:00:00 18.5 0 Calma 11 Este 0 -- -- 63
2020-10-05 20:00:00 20.5 7 Este 17 Este 0 -- -- 53
2020-10-05 19:00:00 23 10 Sudeste 18 Sudeste 0 -- -- 53
2020-10-05 18:00:00 22.2 9 Sudeste 23 Sudeste 0 -- -- 54
2020-10-05 17:00:00 23.4 8 Sur 18 Sudoeste 0 -- -- 49
2020-10-05 16:00:00 23.2 12 Sur 30 Sur 0 -- -- 50
2020-10-05 15:00:00 25.9 9 Sur 14 Sur 0 -- -- 32
2020-10-05 14:00:00 25 6 Sur 14 Sur 0 -- -- 36
2020-10-05 13:00:00 24 10 Sur 20 Sur 0 -- -- 42
2020-10-05 12:00:00 23.3 11 Sur 18 Sur 0 -- -- 42
2020-10-05 11:00:00 22.4 8 Sur 13 Sur 0 -- -- 49
2020-10-05 10:00:00 20 6 Este 15 Sudeste 0 -- -- 51
2020-10-05 09:00:00 16.2 6 Norte 10 Noroeste 0 -- -- 58
2020-10-05 08:00:00 16.9 6 Norte 23 Noroeste 0 -- -- 58
2020-10-05 07:00:00 17.6 12 Norte 27 Noroeste 0 -- -- 57
2020-10-05 06:00:00 18.3 13 Norte 28 Noroeste 0 -- -- 57
2020-10-05 05:00:00 19.2 19 Noroeste 32 Noroeste 0 -- -- 56
2020-10-05 04:00:00 18.6 12 Noroeste 22 Noroeste 0 -- -- 61
2020-10-05 03:00:00 18.3 5 Norte 9 Norte 0 -- -- 59
2020-10-05 02:00:00 18.5 0 Calma 10 Sudeste 0 -- -- 60
2020-10-05 01:00:00 20.6 8 Norte 31 Noroeste 0 -- -- 54
2020-10-05 00:00:00 21.8 20 Noroeste 37 Noroeste 0 -- -- 50
2020-10-04 23:00:00 21.7 9 Norte 32 Noroeste 0 -- -- 46
2020-10-04 22:00:00 21.9 8 Norte 39 Noroeste 0 -- -- 43
2020-10-04 21:00:00 23 16 Noroeste 39 Noroeste 0 -- -- 41
2020-10-04 20:00:00 23.9 27 Noroeste 44 Noroeste 0 -- -- 38
2020-10-04 19:00:00 25 20 Noroeste 39 Oeste 0 -- -- 38
2020-10-04 18:00:00 20.5 17 Oeste 52 Oeste 0 -- -- 63
2020-10-04 17:00:00 21.6 28 Oeste 49 Sudoeste 0 -- -- 56
2020-10-04 16:00:00 20.3 31 Sudoeste 48 Sudoeste 0 -- -- 62
2020-10-04 15:00:00 20 25 Sudoeste 49 Sudoeste 0 -- -- 59
2020-10-04 14:00:00 21.4 28 Sudoeste 48 Sudoeste 0 -- -- 52
2020-10-04 13:00:00 21.3 16 Sudoeste 34 Oeste 0 -- -- 52
2020-10-04 12:00:00 20.5 20 Sudoeste 37 Sudoeste 0 -- -- 52
2020-10-04 11:00:00 20.6 5 Sudeste 11 Sudeste 0 -- -- 44
2020-10-04 10:00:00 17.1 0 Calma 7 Norte 0 -- -- 49
2020-10-04 09:00:00 12.1 3 Norte 7 Norte 0 -- -- 61
2020-10-04 08:00:00 12.5 5 Nordeste 9 Nordeste 0 -- -- 56
2020-10-04 07:00:00 12 2 Norte 11 Nordeste 0 -- -- 57
2020-10-04 06:00:00 13.5 4 Norte 16 Norte 0 -- -- 51
2020-10-04 05:00:00 14 5 Norte 13 Nordeste 0 -- -- 50
2020-10-04 04:00:00 14.2 8 Norte 13 Nordeste 0 -- -- 49
2020-10-04 03:00:00 15.1 8 Norte 17 Norte 0 -- -- 48
2020-10-04 02:00:00 15.1 5 Nordeste 15 Norte 0 -- -- 48
2020-10-04 01:00:00 15.9 10 Norte 21 Oeste 0 -- -- 46
2020-10-04 00:00:00 15.8 3 Nordeste 17 Noroeste 0 -- -- 46
2020-10-03 23:00:00 18.4 15 Noroeste 29 Noroeste 0 -- -- 40
2020-10-03 22:00:00 17.7 7 Noroeste 15 Oeste 0 -- -- 43
2020-10-03 21:00:00 18.6 6 Noroeste 26 Noroeste 0 -- -- 40
2020-10-03 20:00:00 20.2 17 Noroeste 36 Noroeste 0 -- -- 37
2020-10-03 19:00:00 22.2 23 Noroeste 38 Noroeste 0 -- -- 33
2020-10-03 18:00:00 20.7 17 Oeste 35 Sudoeste 0 -- -- 46
2020-10-03 17:00:00 23.7 21 Noroeste 44 Noroeste 0 -- -- 29
2020-10-03 16:00:00 23.6 30 Noroeste 46 Noroeste 0 -- -- 30
2020-10-03 15:00:00 23.4 22 Noroeste 42 Noroeste 0 -- -- 29
2020-10-03 14:00:00 21.9 17 Oeste 36 Noroeste 0 -- -- 33
2020-10-03 13:00:00 21.2 27 Noroeste 45 Noroeste 0 -- -- 32
2020-10-03 12:00:00 20.3 13 Oeste 41 Oeste 0 -- -- 36
2020-10-03 11:00:00 18.2 23 Noroeste 48 Noroeste 0 -- -- 41
2020-10-03 10:00:00 16.1 24 Noroeste 53 Noroeste 0 -- -- 50
2020-10-03 09:00:00 14 23 Noroeste 41 Noroeste 0 -- -- 58
2020-10-03 08:00:00 13.6 25 Noroeste 40 Noroeste 0 -- -- 60
2020-10-03 07:00:00 14 23 Noroeste 38 Noroeste 0 -- -- 57
2020-10-03 06:00:00 14.5 28 Noroeste 68 Norte 0 -- -- 55
2020-10-03 05:00:00 15.3 48 Norte 69 Norte 0 -- -- 52
2020-10-03 04:00:00 15.3 16 Noroeste 48 Norte 0 -- -- 51
2020-10-03 03:00:00 16 27 Noroeste 63 Noroeste 0 -- -- 52
2020-10-03 02:00:00 16.7 35 Noroeste 59 Noroeste 0 -- -- 51
2020-10-03 01:00:00 17.4 28 Noroeste 53 Noroeste 0 -- -- 49
2020-10-03 00:00:00 17.9 19 Noroeste 47 Noroeste 0 -- -- 50
2020-10-02 23:00:00 19 31 Norte 63 Norte 0 -- -- 45
2020-10-02 22:00:00 18.8 43 Noroeste 76 Norte 0.2 -- -- 49
2020-10-02 21:00:00 19.8 37 Noroeste 59 Noroeste 0 -- -- 58
2020-10-02 20:00:00 21.4 24 Noroeste 54 Noroeste 0 -- -- 72
2020-10-02 19:00:00 20.1 13 Noroeste 50 Oeste 0.2 -- -- 87
2020-10-02 18:00:00 21.2 26 Oeste 51 Sudoeste 0 -- -- 76
2020-10-02 17:00:00 20.4 23 Oeste 48 Oeste 0 -- -- 77
2020-10-02 16:00:00 20.7 24 Oeste 48 Sudoeste 0 -- -- 75
2020-10-02 15:00:00 21.5 26 Oeste 44 Sudoeste 0 -- -- 71
2020-10-02 14:00:00 21.8 18 Sudoeste 42 Oeste 0 -- -- 65
2020-10-02 13:00:00 21.8 19 Sudoeste 37 Sudoeste 0 -- -- 63
2020-10-02 12:00:00 22.3 21 Noroeste 49 Noroeste 0 -- -- 57
2020-10-02 11:00:00 20.6 30 Noroeste 46 Noroeste 0 -- -- 58
2020-10-02 10:00:00 20.3 20 Noroeste 31 Noroeste 0 -- -- 55
2020-10-02 09:00:00 20.3 20 Noroeste 33 Noroeste 0 -- -- 54
2020-10-02 08:00:00 20.4 19 Noroeste 33 Noroeste 0 -- -- 55
2020-10-02 07:00:00 21 24 Noroeste 38 Noroeste 0 -- -- 54
2020-10-02 06:00:00 21.8 23 Noroeste 40 Noroeste 0 -- -- 55
2020-10-02 05:00:00 21.8 18 Noroeste 31 Noroeste 0 -- -- 56
2020-10-02 04:00:00 22 12 Oeste 30 Noroeste 0 -- -- 56
2020-10-02 03:00:00 22.2 14 Oeste 34 Oeste 0 -- -- 56
2020-10-02 02:00:00 22.8 18 Noroeste 37 Noroeste 0 -- -- 54
2020-10-02 01:00:00 23.7 27 Noroeste 41 Noroeste 0 -- -- 53
2020-10-02 00:00:00 24.2 27 Noroeste 43 Noroeste 0 -- -- 52
2020-10-01 23:00:00 25 23 Noroeste 40 Noroeste 0 -- -- 46
2020-10-01 22:00:00 25 7 Noroeste 30 Noroeste 0 -- -- 38
2020-10-01 21:00:00 25 13 Noroeste 25 Noroeste 0 -- -- 33
2020-10-01 20:00:00 26.1 6 Oeste 32 Noroeste 0 -- -- 44
2020-10-01 19:00:00 28.6 16 Noroeste 36 Sudoeste 0 -- -- 24
2020-10-01 18:00:00 23.1 24 Sudoeste 42 Oeste 0 -- -- 64
2020-10-01 17:00:00 25.3 15 Oeste 43 Oeste 0 -- -- 55
2020-10-01 16:00:00 25.5 19 Oeste 39 Oeste 0 -- -- 56
2020-10-01 15:00:00 24.2 23 Oeste 48 Oeste 0 -- -- 63
2020-10-01 14:00:00 24.4 24 Sudoeste 44 Oeste 0 -- -- 62
2020-10-01 13:00:00 27.6 8 Sur 14 Sur 0 -- -- 50
2020-10-01 12:00:00 24.1 8 Sur 11 Sur 0 -- -- 60
2020-10-01 11:00:00 21.8 6 Sur 10 Sudoeste 0 -- -- 72
2020-10-01 10:00:00 19.2 2 Sudoeste 6 Sudoeste 0 -- -- 85
2020-10-01 09:00:00 14.5 4 Norte 7 Norte 0 -- -- 91
2020-10-01 08:00:00 14.9 3 Nordeste 6 Norte 0 -- -- 94
2020-10-01 07:00:00 15.4 2 Nordeste 5 Norte 0 -- -- 95
2020-10-01 06:00:00 15.7 0 Calma 4 Norte 0 -- -- 94
2020-10-01 05:00:00 16 3 Sudeste 6 Norte 0 -- -- 94
2020-10-01 04:00:00 16 3 Norte 5 Norte 0 -- -- 91
2020-10-01 03:00:00 16.8 3 Norte 8 Nordeste 0 -- -- 90
2020-10-01 02:00:00 17.3 2 Nordeste 8 Norte 0 -- -- 90
2020-10-01 01:00:00 17.8 0 Calma 5 Nordeste 0 -- -- 91
2020-10-01 00:00:00 18.5 0 Calma 5 Norte 0 -- -- 91